sensor_id;sensor_type;location;lat;lon;timestamp;P1;durP1;ratioP1;P2;durP2;ratioP2
15806;SDS011;8005;51.368;6.140;2022-07-29T00:00:58;4.15;;;0.75;;
15806;SDS011;8005;51.368;6.140;2022-07-29T00:02:30;3.72;;;0.98;;
15806;SDS011;8005;51.368;6.140;2022-07-29T00:04:03;4.20;;;0.60;;
15806;SDS011;8005;51.368;6.140;2022-07-29T00:05:35;4.45;;;0.80;;
15806;SDS011;8005;51.368;6.140;2022-07-29T00:07:07;3.30;;;0.93;;
15806;SDS011;8005;51.368;6.140;2022-07-29T00:08:40;3.72;;;0.85;;
15806;SDS011;8005;51.368;6.140;2022-07-29T00:10:12;1.80;;;0.70;;
15806;SDS011;8005;51.368;6.140;2022-07-29T00:11:44;4.55;;;0.90;;
15806;SDS011;8005;51.368;6.140;2022-07-29T00:13:16;3.50;;;0.75;;
15806;SDS011;8005;51.368;6.140;2022-07-29T00:15:02;4.97;;;0.90;;
15806;SDS011;8005;51.368;6.140;2022-07-29T00:16:34;4.65;;;0.82;;
15806;SDS011;8005;51.368;6.140;2022-07-29T00:18:09;8.93;;;0.85;;
15806;SDS011;8005;51.368;6.140;2022-07-29T00:19:41;2.83;;;0.70;;
15806;SDS011;8005;51.368;6.140;2022-07-29T00:21:16;3.35;;;1.08;;
15806;SDS011;8005;51.368;6.140;2022-07-29T00:22:47;4.60;;;0.90;;
15806;SDS011;8005;51.368;6.140;2022-07-29T00:24:19;4.67;;;0.80;;
15806;SDS011;8005;51.368;6.140;2022-07-29T00:25:51;5.75;;;1.00;;
15806;SDS011;8005;51.368;6.140;2022-07-29T00:27:25;3.08;;;0.73;;
15806;SDS011;8005;51.368;6.140;2022-07-29T00:28:58;7.13;;;0.73;;
15806;SDS011;8005;51.368;6.140;2022-07-29T00:32:22;3.42;;;0.80;;
15806;SDS011;8005;51.368;6.140;2022-07-29T00:33:54;2.40;;;0.85;;
15806;SDS011;8005;51.368;6.140;2022-07-29T00:35:26;3.20;;;0.80;;
15806;SDS011;8005;51.368;6.140;2022-07-29T00:37:16;5.10;;;0.80;;
15806;SDS011;8005;51.368;6.140;2022-07-29T00:38:49;3.58;;;0.70;;
15806;SDS011;8005;51.368;6.140;2022-07-29T00:40:21;3.58;;;0.75;;
15806;SDS011;8005;51.368;6.140;2022-07-29T00:41:55;4.60;;;0.60;;
15806;SDS011;8005;51.368;6.140;2022-07-29T00:43:27;4.43;;;0.95;;
15806;SDS011;8005;51.368;6.140;2022-07-29T00:44:59;5.68;;;0.82;;
15806;SDS011;8005;51.368;6.140;2022-07-29T00:46:31;4.93;;;1.03;;
15806;SDS011;8005;51.368;6.140;2022-07-29T00:48:03;4.37;;;0.90;;
15806;SDS011;8005;51.368;6.140;2022-07-29T00:49:36;4.07;;;1.02;;
15806;SDS011;8005;51.368;6.140;2022-07-29T00:51:13;2.28;;;0.60;;
15806;SDS011;8005;51.368;6.140;2022-07-29T00:52:45;3.22;;;0.65;;
15806;SDS011;8005;51.368;6.140;2022-07-29T00:54:17;5.22;;;0.70;;
15806;SDS011;8005;51.368;6.140;2022-07-29T00:55:50;4.80;;;1.15;;
15806;SDS011;8005;51.368;6.140;2022-07-29T00:58:54;2.83;;;0.60;;
15806;SDS011;8005;51.368;6.140;2022-07-29T01:00:28;3.22;;;0.80;;
15806;SDS011;8005;51.368;6.140;2022-07-29T01:02:01;4.97;;;1.00;;
15806;SDS011;8005;51.368;6.140;2022-07-29T01:03:34;3.25;;;0.75;;
15806;SDS011;8005;51.368;6.140;2022-07-29T01:05:06;2.70;;;0.65;;
15806;SDS011;8005;51.368;6.140;2022-07-29T01:06:38;2.53;;;0.65;;
15806;SDS011;8005;51.368;6.140;2022-07-29T01:08:14;4.05;;;0.73;;
15806;SDS011;8005;51.368;6.140;2022-07-29T01:09:47;3.78;;;0.70;;
15806;SDS011;8005;51.368;6.140;2022-07-29T01:11:18;2.22;;;0.80;;
15806;SDS011;8005;51.368;6.140;2022-07-29T01:12:51;4.35;;;0.85;;
15806;SDS011;8005;51.368;6.140;2022-07-29T01:14:24;4.47;;;0.90;;
15806;SDS011;8005;51.368;6.140;2022-07-29T01:15:58;2.30;;;1.00;;
15806;SDS011;8005;51.368;6.140;2022-07-29T01:17:33;3.00;;;0.80;;
15806;SDS011;8005;51.368;6.140;2022-07-29T01:19:07;4.10;;;0.75;;
15806;SDS011;8005;51.368;6.140;2022-07-29T01:25:46;3.85;;;0.60;;
15806;SDS011;8005;51.368;6.140;2022-07-29T01:29:15;8.85;;;1.52;;
15806;SDS011;8005;51.368;6.140;2022-07-29T01:30:52;9.40;;;2.75;;
15806;SDS011;8005;51.368;6.140;2022-07-29T01:32:28;3.45;;;0.88;;
15806;SDS011;8005;51.368;6.140;2022-07-29T01:34:03;5.10;;;1.10;;
15806;SDS011;8005;51.368;6.140;2022-07-29T01:35:40;4.07;;;0.90;;
15806;SDS011;8005;51.368;6.140;2022-07-29T01:38:54;6.10;;;1.20;;
15806;SDS011;8005;51.368;6.140;2022-07-29T01:40:40;7.53;;;0.95;;
15806;SDS011;8005;51.368;6.140;2022-07-29T01:42:44;3.00;;;1.10;;
15806;SDS011;8005;51.368;6.140;2022-07-29T01:45:06;5.95;;;1.15;;
15806;SDS011;8005;51.368;6.140;2022-07-29T01:46:25;4.00;;;1.27;;
15806;SDS011;8005;51.368;6.140;2022-07-29T01:48:21;2.42;;;0.90;;
15806;SDS011;8005;51.368;6.140;2022-07-29T01:49:55;5.68;;;1.42;;
15806;SDS011;8005;51.368;6.140;2022-07-29T01:51:32;4.75;;;1.08;;
15806;SDS011;8005;51.368;6.140;2022-07-29T01:53:34;8.98;;;1.25;;
15806;SDS011;8005;51.368;6.140;2022-07-29T01:55:11;3.90;;;1.10;;
15806;SDS011;8005;51.368;6.140;2022-07-29T01:56:46;4.97;;;1.40;;
15806;SDS011;8005;51.368;6.140;2022-07-29T01:58:20;4.03;;;1.30;;
15806;SDS011;8005;51.368;6.140;2022-07-29T01:59:54;6.80;;;1.58;;
15806;SDS011;8005;51.368;6.140;2022-07-29T02:01:27;5.30;;;1.10;;
15806;SDS011;8005;51.368;6.140;2022-07-29T02:03:02;3.33;;;1.30;;
15806;SDS011;8005;51.368;6.140;2022-07-29T02:04:37;3.33;;;1.17;;
15806;SDS011;8005;51.368;6.140;2022-07-29T02:06:10;5.90;;;1.30;;
15806;SDS011;8005;51.368;6.140;2022-07-29T02:07:43;5.22;;;1.30;;
15806;SDS011;8005;51.368;6.140;2022-07-29T02:09:16;5.50;;;1.33;;
15806;SDS011;8005;51.368;6.140;2022-07-29T02:10:49;2.05;;;0.93;;
15806;SDS011;8005;51.368;6.140;2022-07-29T02:12:21;6.30;;;1.48;;
15806;SDS011;8005;51.368;6.140;2022-07-29T02:13:55;4.72;;;1.40;;
15806;SDS011;8005;51.368;6.140;2022-07-29T02:15:30;3.97;;;1.25;;
15806;SDS011;8005;51.368;6.140;2022-07-29T02:17:04;6.80;;;1.40;;
15806;SDS011;8005;51.368;6.140;2022-07-29T02:18:36;6.07;;;1.75;;
15806;SDS011;8005;51.368;6.140;2022-07-29T02:20:09;7.15;;;1.42;;
15806;SDS011;8005;51.368;6.140;2022-07-29T02:21:41;4.90;;;1.40;;
15806;SDS011;8005;51.368;6.140;2022-07-29T02:23:15;5.18;;;1.75;;
15806;SDS011;8005;51.368;6.140;2022-07-29T02:24:51;8.18;;;1.25;;
15806;SDS011;8005;51.368;6.140;2022-07-29T02:26:24;4.57;;;1.35;;
15806;SDS011;8005;51.368;6.140;2022-07-29T02:27:57;3.63;;;1.35;;
15806;SDS011;8005;51.368;6.140;2022-07-29T02:29:30;6.20;;;1.88;;
15806;SDS011;8005;51.368;6.140;2022-07-29T02:31:02;4.60;;;1.48;;
15806;SDS011;8005;51.368;6.140;2022-07-29T02:32:35;5.30;;;1.70;;
15806;SDS011;8005;51.368;6.140;2022-07-29T02:34:10;6.10;;;1.38;;
15806;SDS011;8005;51.368;6.140;2022-07-29T02:35:44;6.35;;;1.88;;
15806;SDS011;8005;51.368;6.140;2022-07-29T02:37:17;4.80;;;1.52;;
15806;SDS011;8005;51.368;6.140;2022-07-29T02:38:50;5.72;;;1.75;;
15806;SDS011;8005;51.368;6.140;2022-07-29T02:42:03;3.50;;;1.50;;
15806;SDS011;8005;51.368;6.140;2022-07-29T02:43:37;3.95;;;1.50;;
15806;SDS011;8005;51.368;6.140;2022-07-29T02:45:10;6.82;;;1.73;;
15806;SDS011;8005;51.368;6.140;2022-07-29T02:46:48;4.97;;;1.63;;
15806;SDS011;8005;51.368;6.140;2022-07-29T02:48:24;5.68;;;1.35;;
15806;SDS011;8005;51.368;6.140;2022-07-29T02:50:04;5.65;;;1.80;;
15806;SDS011;8005;51.368;6.140;2022-07-29T02:51:46;5.10;;;1.65;;
15806;SDS011;8005;51.368;6.140;2022-07-29T02:53:23;4.60;;;1.45;;
15806;SDS011;8005;51.368;6.140;2022-07-29T02:54:58;4.95;;;1.60;;
15806;SDS011;8005;51.368;6.140;2022-07-29T02:56:32;5.40;;;1.90;;
15806;SDS011;8005;51.368;6.140;2022-07-29T02:58:09;7.95;;;2.20;;
15806;SDS011;8005;51.368;6.140;2022-07-29T02:59:46;6.25;;;1.70;;
15806;SDS011;8005;51.368;6.140;2022-07-29T03:01:21;2.97;;;1.08;;
15806;SDS011;8005;51.368;6.140;2022-07-29T03:02:54;6.63;;;1.90;;
15806;SDS011;8005;51.368;6.140;2022-07-29T03:04:28;3.63;;;1.58;;
15806;SDS011;8005;51.368;6.140;2022-07-29T03:06:03;7.43;;;1.90;;
15806;SDS011;8005;51.368;6.140;2022-07-29T03:07:35;4.57;;;1.92;;
15806;SDS011;8005;51.368;6.140;2022-07-29T03:10:44;3.85;;;1.70;;
15806;SDS011;8005;51.368;6.140;2022-07-29T03:12:17;2.85;;;1.63;;
15806;SDS011;8005;51.368;6.140;2022-07-29T03:13:49;5.30;;;1.88;;
15806;SDS011;8005;51.368;6.140;2022-07-29T03:15:21;5.53;;;1.92;;
15806;SDS011;8005;51.368;6.140;2022-07-29T03:16:55;4.15;;;1.77;;
15806;SDS011;8005;51.368;6.140;2022-07-29T03:18:27;6.32;;;1.48;;
15806;SDS011;8005;51.368;6.140;2022-07-29T03:19:59;6.53;;;1.83;;
15806;SDS011;8005;51.368;6.140;2022-07-29T03:21:31;3.20;;;1.80;;
15806;SDS011;8005;51.368;6.140;2022-07-29T03:23:03;4.13;;;1.50;;
15806;SDS011;8005;51.368;6.140;2022-07-29T03:24:36;5.30;;;1.58;;
15806;SDS011;8005;51.368;6.140;2022-07-29T03:26:08;5.22;;;2.13;;
15806;SDS011;8005;51.368;6.140;2022-07-29T03:27:40;6.13;;;1.45;;
15806;SDS011;8005;51.368;6.140;2022-07-29T03:29:12;7.30;;;1.55;;
15806;SDS011;8005;51.368;6.140;2022-07-29T03:30:44;3.63;;;1.40;;
15806;SDS011;8005;51.368;6.140;2022-07-29T03:32:16;7.88;;;1.67;;
15806;SDS011;8005;51.368;6.140;2022-07-29T03:33:55;3.33;;;1.15;;
15806;SDS011;8005;51.368;6.140;2022-07-29T03:35:27;5.50;;;1.38;;
15806;SDS011;8005;51.368;6.140;2022-07-29T03:36:59;6.50;;;2.03;;
15806;SDS011;8005;51.368;6.140;2022-07-29T03:38:32;8.47;;;2.10;;
15806;SDS011;8005;51.368;6.140;2022-07-29T03:40:06;8.45;;;1.98;;
15806;SDS011;8005;51.368;6.140;2022-07-29T03:41:40;5.13;;;1.50;;
15806;SDS011;8005;51.368;6.140;2022-07-29T03:43:13;6.75;;;1.67;;
15806;SDS011;8005;51.368;6.140;2022-07-29T03:44:47;5.70;;;1.60;;
15806;SDS011;8005;51.368;6.140;2022-07-29T03:47:54;5.53;;;1.50;;
15806;SDS011;8005;51.368;6.140;2022-07-29T03:49:31;4.72;;;1.52;;
15806;SDS011;8005;51.368;6.140;2022-07-29T03:51:04;6.03;;;2.08;;
15806;SDS011;8005;51.368;6.140;2022-07-29T03:52:37;4.70;;;1.67;;
15806;SDS011;8005;51.368;6.140;2022-07-29T03:54:09;5.15;;;2.20;;
15806;SDS011;8005;51.368;6.140;2022-07-29T03:55:43;3.75;;;1.58;;
15806;SDS011;8005;51.368;6.140;2022-07-29T03:57:16;6.18;;;1.60;;
15806;SDS011;8005;51.368;6.140;2022-07-29T03:58:53;6.70;;;1.73;;
15806;SDS011;8005;51.368;6.140;2022-07-29T04:00:26;5.68;;;2.08;;
15806;SDS011;8005;51.368;6.140;2022-07-29T04:03:31;3.08;;;1.55;;
15806;SDS011;8005;51.368;6.140;2022-07-29T04:05:03;12.10;;;1.83;;
15806;SDS011;8005;51.368;6.140;2022-07-29T04:06:39;9.38;;;2.15;;
15806;SDS011;8005;51.368;6.140;2022-07-29T04:08:18;4.70;;;1.98;;
15806;SDS011;8005;51.368;6.140;2022-07-29T04:09:50;3.70;;;1.40;;
15806;SDS011;8005;51.368;6.140;2022-07-29T04:11:22;5.43;;;2.20;;
15806;SDS011;8005;51.368;6.140;2022-07-29T04:12:58;5.57;;;2.25;;
15806;SDS011;8005;51.368;6.140;2022-07-29T04:14:34;8.27;;;2.28;;
15806;SDS011;8005;51.368;6.140;2022-07-29T04:16:06;6.05;;;2.17;;
15806;SDS011;8005;51.368;6.140;2022-07-29T04:17:38;8.15;;;2.25;;
15806;SDS011;8005;51.368;6.140;2022-07-29T04:19:10;6.53;;;2.00;;
15806;SDS011;8005;51.368;6.140;2022-07-29T04:20:42;9.40;;;2.17;;
15806;SDS011;8005;51.368;6.140;2022-07-29T04:22:14;5.93;;;2.07;;
15806;SDS011;8005;51.368;6.140;2022-07-29T04:23:46;7.10;;;1.88;;
15806;SDS011;8005;51.368;6.140;2022-07-29T04:25:24;3.10;;;1.73;;
15806;SDS011;8005;51.368;6.140;2022-07-29T04:26:56;6.50;;;2.33;;
15806;SDS011;8005;51.368;6.140;2022-07-29T04:28:28;5.85;;;2.20;;
15806;SDS011;8005;51.368;6.140;2022-07-29T04:29:59;4.57;;;1.93;;
15806;SDS011;8005;51.368;6.140;2022-07-29T04:31:31;6.05;;;2.60;;
15806;SDS011;8005;51.368;6.140;2022-07-29T04:33:04;6.10;;;2.25;;
15806;SDS011;8005;51.368;6.140;2022-07-29T04:34:38;5.13;;;1.85;;
15806;SDS011;8005;51.368;6.140;2022-07-29T04:38:00;8.80;;;2.45;;
15806;SDS011;8005;51.368;6.140;2022-07-29T04:39:32;6.05;;;2.70;;
15806;SDS011;8005;51.368;6.140;2022-07-29T04:41:04;5.65;;;2.17;;
15806;SDS011;8005;51.368;6.140;2022-07-29T04:42:39;5.75;;;2.05;;
15806;SDS011;8005;51.368;6.140;2022-07-29T04:44:17;9.48;;;2.85;;
15806;SDS011;8005;51.368;6.140;2022-07-29T04:47:21;5.15;;;2.55;;
15806;SDS011;8005;51.368;6.140;2022-07-29T04:48:55;8.63;;;3.25;;
15806;SDS011;8005;51.368;6.140;2022-07-29T04:50:27;9.90;;;2.53;;
15806;SDS011;8005;51.368;6.140;2022-07-29T04:51:59;4.22;;;2.20;;
15806;SDS011;8005;51.368;6.140;2022-07-29T04:53:31;8.15;;;2.72;;
15806;SDS011;8005;51.368;6.140;2022-07-29T04:55:03;5.83;;;3.13;;
15806;SDS011;8005;51.368;6.140;2022-07-29T04:56:36;7.63;;;2.92;;
15806;SDS011;8005;51.368;6.140;2022-07-29T04:58:08;4.63;;;2.90;;
15806;SDS011;8005;51.368;6.140;2022-07-29T04:59:40;5.53;;;2.60;;
15806;SDS011;8005;51.368;6.140;2022-07-29T05:01:12;5.60;;;2.30;;
15806;SDS011;8005;51.368;6.140;2022-07-29T05:02:44;4.85;;;2.78;;
15806;SDS011;8005;51.368;6.140;2022-07-29T05:04:16;9.10;;;3.33;;
15806;SDS011;8005;51.368;6.140;2022-07-29T05:07:20;6.57;;;2.75;;
15806;SDS011;8005;51.368;6.140;2022-07-29T05:08:52;5.43;;;3.17;;
15806;SDS011;8005;51.368;6.140;2022-07-29T05:10:24;15.05;;;3.65;;
15806;SDS011;8005;51.368;6.140;2022-07-29T05:11:56;8.10;;;3.40;;
15806;SDS011;8005;51.368;6.140;2022-07-29T05:13:28;7.55;;;3.30;;
15806;SDS011;8005;51.368;6.140;2022-07-29T05:15:16;6.70;;;3.22;;
15806;SDS011;8005;51.368;6.140;2022-07-29T05:16:49;7.20;;;3.30;;
15806;SDS011;8005;51.368;6.140;2022-07-29T05:18:22;7.28;;;3.53;;
15806;SDS011;8005;51.368;6.140;2022-07-29T05:19:56;8.57;;;3.25;;
15806;SDS011;8005;51.368;6.140;2022-07-29T05:21:28;6.78;;;3.38;;
15806;SDS011;8005;51.368;6.140;2022-07-29T05:23:00;9.65;;;3.90;;
15806;SDS011;8005;51.368;6.140;2022-07-29T05:26:04;7.00;;;3.47;;
15806;SDS011;8005;51.368;6.140;2022-07-29T05:27:36;6.13;;;3.60;;
15806;SDS011;8005;51.368;6.140;2022-07-29T05:29:08;8.90;;;3.42;;
15806;SDS011;8005;51.368;6.140;2022-07-29T05:31:00;7.53;;;3.25;;
15806;SDS011;8005;51.368;6.140;2022-07-29T05:32:33;7.90;;;3.15;;
15806;SDS011;8005;51.368;6.140;2022-07-29T05:34:05;6.80;;;3.10;;
15806;SDS011;8005;51.368;6.140;2022-07-29T05:35:37;7.97;;;2.60;;
15806;SDS011;8005;51.368;6.140;2022-07-29T05:37:09;3.93;;;2.20;;
15806;SDS011;8005;51.368;6.140;2022-07-29T05:38:41;5.72;;;2.95;;
15806;SDS011;8005;51.368;6.140;2022-07-29T05:40:12;8.90;;;2.73;;
15806;SDS011;8005;51.368;6.140;2022-07-29T05:41:44;4.20;;;2.23;;
15806;SDS011;8005;51.368;6.140;2022-07-29T05:43:22;6.55;;;2.65;;
15806;SDS011;8005;51.368;6.140;2022-07-29T05:44:54;5.00;;;2.42;;
15806;SDS011;8005;51.368;6.140;2022-07-29T05:46:26;6.43;;;2.72;;
15806;SDS011;8005;51.368;6.140;2022-07-29T05:47:58;4.68;;;2.92;;
15806;SDS011;8005;51.368;6.140;2022-07-29T05:49:30;8.87;;;2.53;;
15806;SDS011;8005;51.368;6.140;2022-07-29T05:51:02;8.05;;;2.42;;
15806;SDS011;8005;51.368;6.140;2022-07-29T05:52:34;7.80;;;2.65;;
15806;SDS011;8005;51.368;6.140;2022-07-29T05:54:06;7.97;;;2.50;;
15806;SDS011;8005;51.368;6.140;2022-07-29T05:55:38;5.30;;;2.63;;
15806;SDS011;8005;51.368;6.140;2022-07-29T05:57:16;6.00;;;2.57;;
15806;SDS011;8005;51.368;6.140;2022-07-29T05:58:49;7.28;;;3.35;;
15806;SDS011;8005;51.368;6.140;2022-07-29T06:00:21;4.75;;;2.97;;
15806;SDS011;8005;51.368;6.140;2022-07-29T06:01:55;6.18;;;2.72;;
15806;SDS011;8005;51.368;6.140;2022-07-29T06:03:28;9.68;;;3.33;;
15806;SDS011;8005;51.368;6.140;2022-07-29T06:05:01;6.07;;;3.17;;
15806;SDS011;8005;51.368;6.140;2022-07-29T06:06:34;6.90;;;2.90;;
15806;SDS011;8005;51.368;6.140;2022-07-29T06:08:06;6.80;;;2.75;;
15806;SDS011;8005;51.368;6.140;2022-07-29T06:09:38;13.30;;;3.63;;
15806;SDS011;8005;51.368;6.140;2022-07-29T06:11:10;7.93;;;2.95;;
15806;SDS011;8005;51.368;6.140;2022-07-29T06:12:42;4.85;;;2.53;;
15806;SDS011;8005;51.368;6.140;2022-07-29T06:14:14;6.28;;;3.40;;
15806;SDS011;8005;51.368;6.140;2022-07-29T06:15:47;6.18;;;2.70;;
15806;SDS011;8005;51.368;6.140;2022-07-29T06:17:19;11.05;;;3.53;;
15806;SDS011;8005;51.368;6.140;2022-07-29T06:18:51;8.93;;;3.10;;
15806;SDS011;8005;51.368;6.140;2022-07-29T06:20:26;7.95;;;2.95;;
15806;SDS011;8005;51.368;6.140;2022-07-29T06:22:01;11.38;;;3.10;;
15806;SDS011;8005;51.368;6.140;2022-07-29T06:23:33;6.93;;;2.65;;
15806;SDS011;8005;51.368;6.140;2022-07-29T06:25:05;4.67;;;2.30;;
15806;SDS011;8005;51.368;6.140;2022-07-29T06:26:40;6.43;;;2.25;;
15806;SDS011;8005;51.368;6.140;2022-07-29T06:28:12;5.43;;;2.92;;
15806;SDS011;8005;51.368;6.140;2022-07-29T06:29:44;10.65;;;3.10;;
15806;SDS011;8005;51.368;6.140;2022-07-29T06:31:16;11.52;;;3.70;;
15806;SDS011;8005;51.368;6.140;2022-07-29T06:32:48;7.25;;;3.75;;
15806;SDS011;8005;51.368;6.140;2022-07-29T06:34:20;7.93;;;3.60;;
15806;SDS011;8005;51.368;6.140;2022-07-29T06:35:56;9.55;;;4.20;;
15806;SDS011;8005;51.368;6.140;2022-07-29T06:37:28;8.27;;;4.00;;
15806;SDS011;8005;51.368;6.140;2022-07-29T06:39:08;9.05;;;3.80;;
15806;SDS011;8005;51.368;6.140;2022-07-29T06:40:44;7.78;;;3.40;;
15806;SDS011;8005;51.368;6.140;2022-07-29T06:42:31;6.50;;;3.58;;
15806;SDS011;8005;51.368;6.140;2022-07-29T06:44:03;6.93;;;3.70;;
15806;SDS011;8005;51.368;6.140;2022-07-29T06:45:36;7.65;;;2.95;;
15806;SDS011;8005;51.368;6.140;2022-07-29T06:47:08;6.72;;;3.33;;
15806;SDS011;8005;51.368;6.140;2022-07-29T06:48:40;10.30;;;3.70;;
15806;SDS011;8005;51.368;6.140;2022-07-29T06:50:13;5.40;;;3.47;;
15806;SDS011;8005;51.368;6.140;2022-07-29T06:51:45;10.20;;;3.70;;
15806;SDS011;8005;51.368;6.140;2022-07-29T06:53:17;6.57;;;3.60;;
15806;SDS011;8005;51.368;6.140;2022-07-29T06:54:49;6.23;;;3.90;;
15806;SDS011;8005;51.368;6.140;2022-07-29T06:56:27;8.80;;;3.70;;
15806;SDS011;8005;51.368;6.140;2022-07-29T06:57:59;7.47;;;3.65;;
15806;SDS011;8005;51.368;6.140;2022-07-29T06:59:30;5.73;;;3.30;;
15806;SDS011;8005;51.368;6.140;2022-07-29T07:01:06;7.68;;;3.42;;
15806;SDS011;8005;51.368;6.140;2022-07-29T07:02:38;6.35;;;3.35;;
15806;SDS011;8005;51.368;6.140;2022-07-29T07:04:10;5.85;;;3.53;;
15806;SDS011;8005;51.368;6.140;2022-07-29T07:05:43;5.43;;;3.55;;
15806;SDS011;8005;51.368;6.140;2022-07-29T07:08:48;9.38;;;4.32;;
15806;SDS011;8005;51.368;6.140;2022-07-29T07:10:20;9.50;;;3.43;;
15806;SDS011;8005;51.368;6.140;2022-07-29T07:11:54;8.00;;;3.47;;
15806;SDS011;8005;51.368;6.140;2022-07-29T07:13:26;5.97;;;3.80;;
15806;SDS011;8005;51.368;6.140;2022-07-29T07:14:59;6.35;;;3.63;;
15806;SDS011;8005;51.368;6.140;2022-07-29T07:16:31;5.90;;;3.83;;
15806;SDS011;8005;51.368;6.140;2022-07-29T07:18:04;6.90;;;3.70;;
15806;SDS011;8005;51.368;6.140;2022-07-29T07:19:39;9.90;;;3.90;;
15806;SDS011;8005;51.368;6.140;2022-07-29T07:21:11;6.83;;;3.70;;
15806;SDS011;8005;51.368;6.140;2022-07-29T07:22:49;8.02;;;4.00;;
15806;SDS011;8005;51.368;6.140;2022-07-29T07:24:21;6.38;;;3.42;;
15806;SDS011;8005;51.368;6.140;2022-07-29T07:25:55;6.47;;;4.40;;
15806;SDS011;8005;51.368;6.140;2022-07-29T07:27:27;9.50;;;3.90;;
15806;SDS011;8005;51.368;6.140;2022-07-29T07:28:59;7.55;;;3.70;;
15806;SDS011;8005;51.368;6.140;2022-07-29T07:30:31;6.90;;;4.00;;
15806;SDS011;8005;51.368;6.140;2022-07-29T07:32:04;8.65;;;4.40;;
15806;SDS011;8005;51.368;6.140;2022-07-29T07:33:36;6.53;;;3.65;;
15806;SDS011;8005;51.368;6.140;2022-07-29T07:35:08;6.88;;;4.20;;
15806;SDS011;8005;51.368;6.140;2022-07-29T07:38:12;4.40;;;3.35;;
15806;SDS011;8005;51.368;6.140;2022-07-29T07:39:44;7.15;;;3.78;;
15806;SDS011;8005;51.368;6.140;2022-07-29T07:41:16;8.73;;;3.53;;
15806;SDS011;8005;51.368;6.140;2022-07-29T07:42:48;10.30;;;3.50;;
15806;SDS011;8005;51.368;6.140;2022-07-29T07:44:20;6.82;;;3.47;;
15806;SDS011;8005;51.368;6.140;2022-07-29T07:45:53;6.93;;;3.78;;
15806;SDS011;8005;51.368;6.140;2022-07-29T07:47:25;9.97;;;4.13;;
15806;SDS011;8005;51.368;6.140;2022-07-29T07:48:58;8.73;;;3.97;;
15806;SDS011;8005;51.368;6.140;2022-07-29T07:50:30;8.65;;;4.45;;
15806;SDS011;8005;51.368;6.140;2022-07-29T07:52:02;7.32;;;4.15;;
15806;SDS011;8005;51.368;6.140;2022-07-29T07:53:34;8.10;;;4.45;;
15806;SDS011;8005;51.368;6.140;2022-07-29T07:55:06;8.95;;;4.00;;
15806;SDS011;8005;51.368;6.140;2022-07-29T07:56:38;6.40;;;3.72;;
15806;SDS011;8005;51.368;6.140;2022-07-29T07:58:10;4.27;;;3.53;;
15806;SDS011;8005;51.368;6.140;2022-07-29T07:59:43;8.50;;;4.03;;
15806;SDS011;8005;51.368;6.140;2022-07-29T08:01:15;7.53;;;3.95;;
15806;SDS011;8005;51.368;6.140;2022-07-29T08:02:50;8.50;;;3.88;;
15806;SDS011;8005;51.368;6.140;2022-07-29T08:04:22;9.77;;;4.22;;
15806;SDS011;8005;51.368;6.140;2022-07-29T08:05:59;10.23;;;4.07;;
15806;SDS011;8005;51.368;6.140;2022-07-29T08:07:31;8.30;;;4.07;;
15806;SDS011;8005;51.368;6.140;2022-07-29T08:09:03;9.77;;;4.30;;
15806;SDS011;8005;51.368;6.140;2022-07-29T08:10:55;8.57;;;3.92;;
15806;SDS011;8005;51.368;6.140;2022-07-29T08:12:27;8.25;;;4.38;;
15806;SDS011;8005;51.368;6.140;2022-07-29T08:13:59;8.00;;;4.07;;
15806;SDS011;8005;51.368;6.140;2022-07-29T08:15:33;5.43;;;4.00;;
15806;SDS011;8005;51.368;6.140;2022-07-29T08:17:05;6.00;;;4.15;;
15806;SDS011;8005;51.368;6.140;2022-07-29T08:18:37;8.13;;;5.72;;
15806;SDS011;8005;51.368;6.140;2022-07-29T08:20:10;9.77;;;4.68;;
15806;SDS011;8005;51.368;6.140;2022-07-29T08:21:42;8.15;;;4.40;;
15806;SDS011;8005;51.368;6.140;2022-07-29T08:23:14;9.63;;;6.07;;
15806;SDS011;8005;51.368;6.140;2022-07-29T08:24:46;8.33;;;5.13;;
15806;SDS011;8005;51.368;6.140;2022-07-29T08:26:25;10.23;;;5.80;;
15806;SDS011;8005;51.368;6.140;2022-07-29T08:27:58;7.65;;;5.43;;
15806;SDS011;8005;51.368;6.140;2022-07-29T08:29:30;8.13;;;5.70;;
15806;SDS011;8005;51.368;6.140;2022-07-29T08:31:02;7.90;;;4.70;;
15806;SDS011;8005;51.368;6.140;2022-07-29T08:32:34;10.88;;;5.88;;
15806;SDS011;8005;51.368;6.140;2022-07-29T08:34:25;10.63;;;4.95;;
15806;SDS011;8005;51.368;6.140;2022-07-29T08:35:58;8.65;;;5.70;;
15806;SDS011;8005;51.368;6.140;2022-07-29T08:37:30;9.63;;;5.88;;
15806;SDS011;8005;51.368;6.140;2022-07-29T08:39:02;8.80;;;5.80;;
15806;SDS011;8005;51.368;6.140;2022-07-29T08:40:35;9.30;;;5.38;;
15806;SDS011;8005;51.368;6.140;2022-07-29T08:42:07;7.78;;;4.97;;
15806;SDS011;8005;51.368;6.140;2022-07-29T08:43:39;10.50;;;5.97;;
15806;SDS011;8005;51.368;6.140;2022-07-29T08:45:15;7.72;;;5.43;;
15806;SDS011;8005;51.368;6.140;2022-07-29T08:46:47;6.70;;;4.70;;
15806;SDS011;8005;51.368;6.140;2022-07-29T08:48:22;7.03;;;5.20;;
15806;SDS011;8005;51.368;6.140;2022-07-29T08:49:54;8.25;;;5.18;;
15806;SDS011;8005;51.368;6.140;2022-07-29T08:51:26;7.60;;;5.60;;
15806;SDS011;8005;51.368;6.140;2022-07-29T08:54:30;5.68;;;4.38;;
15806;SDS011;8005;51.368;6.140;2022-07-29T08:56:02;9.63;;;5.93;;
15806;SDS011;8005;51.368;6.140;2022-07-29T08:57:35;10.20;;;5.28;;
15806;SDS011;8005;51.368;6.140;2022-07-29T09:00:43;7.32;;;5.85;;
15806;SDS011;8005;51.368;6.140;2022-07-29T09:02:20;10.07;;;6.22;;
15806;SDS011;8005;51.368;6.140;2022-07-29T09:03:54;11.57;;;5.43;;
15806;SDS011;8005;51.368;6.140;2022-07-29T09:05:28;12.10;;;5.80;;
15806;SDS011;8005;51.368;6.140;2022-07-29T09:07:00;11.63;;;5.60;;
15806;SDS011;8005;51.368;6.140;2022-07-29T09:08:35;8.20;;;5.43;;
15806;SDS011;8005;51.368;6.140;2022-07-29T09:10:07;6.78;;;5.57;;
15806;SDS011;8005;51.368;6.140;2022-07-29T09:11:40;7.57;;;5.45;;
15806;SDS011;8005;51.368;6.140;2022-07-29T09:13:12;9.70;;;5.38;;
15806;SDS011;8005;51.368;6.140;2022-07-29T09:14:44;6.90;;;5.73;;
15806;SDS011;8005;51.368;6.140;2022-07-29T09:16:17;9.23;;;5.05;;
15806;SDS011;8005;51.368;6.140;2022-07-29T09:18:09;12.05;;;5.45;;
15806;SDS011;8005;51.368;6.140;2022-07-29T09:20:11;6.25;;;4.82;;
15806;SDS011;8005;51.368;6.140;2022-07-29T09:21:44;7.32;;;4.70;;
15806;SDS011;8005;51.368;6.140;2022-07-29T09:23:34;11.15;;;4.50;;
15806;SDS011;8005;51.368;6.140;2022-07-29T09:25:06;11.35;;;4.32;;
15806;SDS011;8005;51.368;6.140;2022-07-29T09:26:40;7.80;;;4.40;;
15806;SDS011;8005;51.368;6.140;2022-07-29T09:28:14;8.10;;;4.00;;
15806;SDS011;8005;51.368;6.140;2022-07-29T09:30:00;8.13;;;4.43;;
15806;SDS011;8005;51.368;6.140;2022-07-29T09:31:36;8.05;;;4.10;;
15806;SDS011;8005;51.368;6.140;2022-07-29T09:33:10;7.18;;;4.25;;
15806;SDS011;8005;51.368;6.140;2022-07-29T09:34:42;8.07;;;4.55;;
15806;SDS011;8005;51.368;6.140;2022-07-29T09:36:14;7.53;;;3.78;;
15806;SDS011;8005;51.368;6.140;2022-07-29T09:37:46;9.00;;;4.15;;
15806;SDS011;8005;51.368;6.140;2022-07-29T09:39:29;9.55;;;3.17;;
15806;SDS011;8005;51.368;6.140;2022-07-29T09:41:03;6.75;;;3.33;;
15806;SDS011;8005;51.368;6.140;2022-07-29T09:42:37;9.55;;;3.88;;
15806;SDS011;8005;51.368;6.140;2022-07-29T09:44:09;6.55;;;3.60;;
15806;SDS011;8005;51.368;6.140;2022-07-29T09:45:41;8.00;;;3.45;;
15806;SDS011;8005;51.368;6.140;2022-07-29T09:47:13;5.78;;;4.10;;
15806;SDS011;8005;51.368;6.140;2022-07-29T09:48:45;7.40;;;3.72;;
15806;SDS011;8005;51.368;6.140;2022-07-29T09:50:39;10.07;;;3.10;;
15806;SDS011;8005;51.368;6.140;2022-07-29T09:53:43;5.53;;;2.88;;
15806;SDS011;8005;51.368;6.140;2022-07-29T09:55:16;8.75;;;3.22;;
15806;SDS011;8005;51.368;6.140;2022-07-29T09:56:50;7.80;;;3.50;;
15806;SDS011;8005;51.368;6.140;2022-07-29T09:58:22;6.75;;;3.53;;
15806;SDS011;8005;51.368;6.140;2022-07-29T10:01:29;4.75;;;3.55;;
15806;SDS011;8005;51.368;6.140;2022-07-29T10:03:01;9.18;;;3.72;;
15806;SDS011;8005;51.368;6.140;2022-07-29T10:04:40;8.15;;;4.20;;
15806;SDS011;8005;51.368;6.140;2022-07-29T10:06:12;5.15;;;3.50;;
15806;SDS011;8005;51.368;6.140;2022-07-29T10:07:48;5.88;;;3.38;;
15806;SDS011;8005;51.368;6.140;2022-07-29T10:09:28;6.18;;;3.47;;